»·PEaware :: N123ER KCRQ-KPSP

N123ER :: KCRQ-KPSP

FLIGHT INFORMATION

Flight Status: Arrived
Operator: Privately registered:
United States
More flights under this callsign
Pilot: Wes C. (14639)
Aircraft: CESSNA 550 CITATION 2/S2/BRAVO
(C550)
More flights by this aircraft type
Origin: KCRQ McClellan-Palomar
United States
Destination: KPSP Palm Springs Intl
United States
More flights between these airports :: More routes between these airports
Route: +JLI V208 TRM
File this flight plan on PilotEdge
Remarks:
Altitude:
(Current/Filed)
11,000ft
Speed:
(Current/Filed)
240kts
Departed: 06-Dec-18 02:36 PM
Arrived: 06-Dec-18 03:25 PM
Distance/Time
Traveled:
57nm/0:49
Distance/Time
To Go:
Arrived

Flight Plot

Page will automatically refresh every two minutes.


Map Options




Map Legend


Flown Route
Filed Route
Departure Airport
Arrival Airport
Navaid (VOR, NDB)
Fix

Horizontal Profiles

Position Reports

Time Latitude Longitude Heading Altitude Ground
Speed
06-Dec-18 13:40 33.127542 -117.274790 258 308ft 0kts
06-Dec-18 13:41 33.127542 -117.274790 258 308ft 0kts
06-Dec-18 13:42 33.127542 -117.274790 258 308ft 0kts
06-Dec-18 13:44 33.127542 -117.274790 258 308ft 0kts
06-Dec-18 13:45 33.127542 -117.274790 258 308ft 0kts
06-Dec-18 13:46 33.127542 -117.274790 258 308ft 0kts
06-Dec-18 13:47 33.127542 -117.274790 258 308ft 0kts
06-Dec-18 13:48 33.127542 -117.274790 258 308ft 0kts
06-Dec-18 13:49 33.127542 -117.274790 258 308ft 0kts
06-Dec-18 13:50 33.127542 -117.274790 258 308ft 0kts
06-Dec-18 13:51 33.127542 -117.274790 258 308ft 0kts
06-Dec-18 13:52 33.127542 -117.274790 258 308ft 0kts
06-Dec-18 13:53 33.127542 -117.274790 258 308ft 0kts
06-Dec-18 13:54 33.127542 -117.274790 258 308ft 0kts
06-Dec-18 13:55 33.127542 -117.274790 258 308ft 0kts
06-Dec-18 13:56 33.127542 -117.274790 258 308ft 0kts
06-Dec-18 13:57 33.127542 -117.274790 258 308ft 0kts
06-Dec-18 13:58 33.127542 -117.274790 258 308ft 0kts
06-Dec-18 13:59 33.127542 -117.274790 258 308ft 0kts
06-Dec-18 14:00 33.127542 -117.274790 258 308ft 0kts
06-Dec-18 14:00 33.127542 -117.274790 258 308ft 0kts
06-Dec-18 14:02 33.127542 -117.274790 258 308ft 0kts
06-Dec-18 14:03 33.127542 -117.274790 258 308ft 0kts
06-Dec-18 14:03 33.127542 -117.274790 258 308ft 0kts
06-Dec-18 14:04 33.127542 -117.274790 258 308ft 0kts
06-Dec-18 14:07 33.127542 -117.274790 258 308ft 0kts
06-Dec-18 14:09 33.127542 -117.274790 258 308ft 0kts
06-Dec-18 14:09 33.127542 -117.274790 258 308ft 0kts
06-Dec-18 14:11 33.127542 -117.274790 258 308ft 0kts
06-Dec-18 14:11 33.127542 -117.274790 258 308ft 0kts
06-Dec-18 14:12 33.127542 -117.274790 258 308ft 0kts
06-Dec-18 14:13 33.127542 -117.274790 258 308ft 0kts
06-Dec-18 14:14 33.127542 -117.274790 258 308ft 0kts
06-Dec-18 14:15 33.127542 -117.274790 258 308ft 0kts
06-Dec-18 14:16 33.127542 -117.274790 258 308ft 0kts
06-Dec-18 14:17 33.127542 -117.274790 258 308ft 0kts
06-Dec-18 14:18 33.127542 -117.274790 258 308ft 0kts
06-Dec-18 14:19 33.127542 -117.274790 258 308ft 0kts
06-Dec-18 14:20 33.127542 -117.274790 258 308ft 0kts
06-Dec-18 14:21 33.127542 -117.274790 258 308ft 0kts
06-Dec-18 14:22 33.127542 -117.274790 258 308ft 0kts
06-Dec-18 14:23 33.127542 -117.274790 258 308ft 0kts
06-Dec-18 14:24 33.127542 -117.274790 258 308ft 0kts
06-Dec-18 14:25 33.127542 -117.274790 258 308ft 0kts
06-Dec-18 14:26 33.127542 -117.274790 258 308ft 0kts
06-Dec-18 14:27 33.127542 -117.274790 258 308ft 0kts
06-Dec-18 14:28 33.127542 -117.274790 258 308ft 0kts
06-Dec-18 14:29 33.127542 -117.274790 258 308ft 0kts
06-Dec-18 14:30 33.127540 -117.274804 259 308ft 0kts
06-Dec-18 14:31 33.128320 -117.274519 78 308ft 15kts
06-Dec-18 14:32 33.128546 -117.273026 64 303ft 0kts
06-Dec-18 14:33 33.128546 -117.273026 64 303ft 0kts
06-Dec-18 14:34 33.128596 -117.272929 51 303ft 3kts
06-Dec-18 14:35 33.129306 -117.273593 259 307ft 46kts
06-Dec-18 14:36 33.118487 -117.302650 221 1644ft 187kts
06-Dec-18 14:37 33.085131 -117.337554 193 3640ft 214kts
06-Dec-18 14:38 33.049832 -117.326964 141 5870ft 208kts
06-Dec-18 14:39 33.027481 -117.281944 110 6816ft 258kts
06-Dec-18 14:40 33.024870 -117.236652 84 7469ft 281kts
06-Dec-18 14:41 33.036633 -117.189999 76 8138ft 275kts
06-Dec-18 14:42 33.053144 -117.127123 75 9057ft 275kts
06-Dec-18 14:43 33.061134 -117.093979 77 9537ft 275kts
06-Dec-18 14:44 33.070834 -117.053297 77 10125ft 276kts
06-Dec-18 14:45 33.078831 -117.018090 81 10626ft 288kts
06-Dec-18 14:46 33.085470 -116.978788 82 11119ft 301kts
06-Dec-18 14:47 33.092744 -116.935167 82 11217ft 320kts
06-Dec-18 14:48 33.101029 -116.885567 82 11021ft 312kts
06-Dec-18 14:49 33.109315 -116.832918 86 11015ft 296kts
06-Dec-18 14:50 33.115101 -116.782899 86 11015ft 288kts
06-Dec-18 14:51 33.120705 -116.734415 86 11016ft 294kts
06-Dec-18 14:52 33.126056 -116.687676 86 11016ft 297kts
06-Dec-18 14:53 33.131462 -116.640336 86 11016ft 299kts
06-Dec-18 14:54 33.135538 -116.604548 86 11017ft 300kts
06-Dec-18 14:55 33.144780 -116.566402 67 11019ft 308kts
06-Dec-18 14:56 33.169803 -116.526818 44 11029ft 315kts
06-Dec-18 14:57 33.203375 -116.500273 32 11046ft 317kts
06-Dec-18 14:58 33.240456 -116.474431 32 11070ft 317kts
06-Dec-18 14:59 33.277430 -116.448857 33 11099ft 316kts
06-Dec-18 15:00 33.315302 -116.419035 36 11124ft 315kts
06-Dec-18 15:01 33.350673 -116.389559 35 10633ft 308kts
06-Dec-18 15:02 33.387264 -116.357204 35 9493ft 304kts
06-Dec-18 15:03 33.418680 -116.328342 36 8999ft 292kts
06-Dec-18 15:04 33.451978 -116.297502 36 8989ft 292kts
06-Dec-18 15:05 33.487615 -116.265168 33 8989ft 291kts
06-Dec-18 15:06 33.523972 -116.234757 33 8990ft 291kts
06-Dec-18 15:07 33.561407 -116.203437 33 8990ft 291kts
06-Dec-18 15:08 33.599296 -116.172805 25 8988ft 286kts
06-Dec-18 15:09 33.639799 -116.158991 347 8982ft 264kts
06-Dec-18 15:10 33.666700 -116.184779 303 8182ft 255kts
06-Dec-18 15:11 33.685375 -116.217550 302 6927ft 225kts
06-Dec-18 15:12 33.709349 -116.262875 301 5126ft 208kts
06-Dec-18 15:13 33.728900 -116.301934 301 4012ft 186kts
06-Dec-18 15:14 33.732802 -116.331419 250 3801ft 124kts
06-Dec-18 15:15 33.725454 -116.355984 251 3188ft 121kts
06-Dec-18 15:16 33.723470 -116.380111 286 2843ft 116kts
06-Dec-18 15:17 33.728903 -116.404819 287 2968ft 121kts
06-Dec-18 15:18 33.740466 -116.426573 314 2993ft 128kts
06-Dec-18 15:19 33.757287 -116.443822 325 2553ft 124kts
06-Dec-18 15:20 33.775254 -116.459663 325 1726ft 126kts
06-Dec-18 15:21 33.793021 -116.475183 326 1018ft 121kts
06-Dec-18 15:22 33.810053 -116.490338 325 642ft 121kts
06-Dec-18 15:23 33.825300 -116.503817 325 414ft 88kts
06-Dec-18 15:24 33.828700 -116.508003 248 425ft 0kts
06-Dec-18 15:25 33.828642 -116.508128 239 425ft 3kts
06-Dec-18 15:26 33.827329 -116.507624 145 421ft 12kts
06-Dec-18 15:27 33.825345 -116.508089 277 419ft 15kts
06-Dec-18 15:28 33.825934 -116.508687 278 421ft 1kts
06-Dec-18 15:29 33.825933 -116.508710 270 421ft 0kts
06-Dec-18 15:30 33.825933 -116.508710 270 421ft 0kts
06-Dec-18 15:31 33.825933 -116.508710 270 421ft 0kts
06-Dec-18 15:32 33.825933 -116.508710 270 421ft 0kts
06-Dec-18 15:33 33.825933 -116.508710 270 421ft 0kts
06-Dec-18 15:34 33.825933 -116.508710 270 421ft 0kts
06-Dec-18 15:35 33.825933 -116.508710 270 421ft 0kts
06-Dec-18 15:36 33.825933 -116.508710 270 421ft 0kts
06-Dec-18 15:37 33.825933 -116.508710 270 421ft 0kts
06-Dec-18 15:38 33.825933 -116.508710 270 421ft 0kts

Navigation Log

Ident Type
Flight plan parsing failed, navigation log unavailable